Detalii statie AFILIU TRANS MIZIL [00001982]

Toti senzorii

Date Temperatura solului [C]Precipitatii [mm]Voltaj baterie [mV]Leaf Wetness [Min]HC Air temperature [C]HC Relative humidity [%]Punctul de roua [C]
medieminmaxsumaultimatimpmedieminmaxmediemediemin
2018-12-09 16:00:00 0 7040 3.26 2.85 3.71 100 3.2 2.8
2018-12-09 17:00:00 0 6962 2.53 2.23 2.87 100 2.4 2.2
2018-12-09 18:00:00 0 6894 2.18 2.09 2.25 100 2.1 2
2018-12-09 19:00:00 0 6854 2.28 2.06 2.43 100 2.2 2
2018-12-09 20:00:00 0 6826 1.87 1.7 2.02 100 1.8 1.7
2018-12-09 21:00:00 0 6826 1.37 1.18 1.63 100 1.3 1.1
2018-12-09 22:00:00 0 6826 1.17 1.07 1.24 100 1.1 1
2018-12-09 23:00:00 0 6786 0.76 0.48 1.02 100 0.7 0.4
2018-12-10 00:00:00 0 6806 0.33 0.24 0.46 100 0.2 0.2
2018-12-10 01:00:00 0 6796 0.09 -0.01 0.18 100 0 0
2018-12-10 02:00:00 0 6796 -0.51 -0.86 0.05 100 -0.4 -0.7
2018-12-10 03:00:00 0 6786 -1.07 -1.26 -0.75 100 -0.9 -1.1
2018-12-10 04:00:00 0 6796 -1.53 -1.73 -1.29 100 -1.3 -1.6
2018-12-10 05:00:00 0 6796 -1.71 -1.77 -1.63 100 -1.5 -1.6
2018-12-10 06:00:00 0 6776 -1.96 -2.25 -1.75 100 -1.8 -2.1
2018-12-10 07:00:00 0 6786 -2.37 -2.49 -2.23 100 -2.2 -2.3
2018-12-10 08:00:00 0 6756 -2.57 -2.78 -2.41 100 -2.4 -2.6
2018-12-10 09:00:00 0 6796 -2.44 -2.74 -2.3 100 -2.2 -2.6
2018-12-10 10:00:00 0 6922 -2.1 -2.44 -1.78 100 -1.9 -2.3
2018-12-10 11:00:00 0.2 7216 -0.67 -1.63 0.91 100 -0.5 -1.5
2018-12-10 12:00:00 0 7216 2.6 1.28 3.16 100 2.5 1.2
2018-12-10 13:00:00 0 7226 3.33 3.08 3.63 100 3.2 3
2018-12-10 14:00:00 0 7226 4.25 3.7 5.08 100 4.2 3.7
2018-12-10 15:00:00 0 7226 4.99 4.67 5.32 100 4.9 4.6
2018-12-10 16:00:00 0 7118 5.93 5.2 6.79 100 5.8 5.2
2018-12-10 17:00:00 0 7010 5.84 4.3 6.88 96.21 5.2 4
2018-12-10 18:00:00 0 6962 3.16 1.82 4.23 100 3.1 1.8
2018-12-10 19:00:00 0 6904 1.13 0.98 1.61 100 1 0.9
2018-12-10 20:00:00 0 6884 1.17 1.14 1.23 100 1.1 1.1
2018-12-10 21:00:00 0 6884 1.08 0.95 1.25 100 1 0.9
2018-12-10 22:00:00 0 6874 0.88 0.82 0.94 100 0.8 0.8
2018-12-10 23:00:00 0 6854 0.7 0.56 0.86 100 0.6 0.5
2018-12-11 00:00:00 0 6864 0.29 -0.07 0.53 100 0.2 0
2018-12-11 01:00:00 0 6844 -0.36 -0.59 -0.13 100 -0.2 -0.4
2018-12-11 02:00:00 0 6854 -0.74 -0.85 -0.6 100 -0.6 -0.7
2018-12-11 03:00:00 0 6826 -0.75 -0.84 -0.68 100 -0.6 -0.7
2018-12-11 04:00:00 0 6834 -0.7 -0.75 -0.64 100 -0.5 -0.6
2018-12-11 05:00:00 0 6834 -0.67 -0.78 -0.59 100 -0.5 -0.6
2018-12-11 06:00:00 0 6826 -0.56 -0.61 -0.5 100 -0.4 -0.5
2018-12-11 07:00:00 0 6826 -0.37 -0.48 -0.23 100 -0.2 -0.3
2018-12-11 08:00:00 0 6776 0.03 -0.16 0.2 100 0 0
2018-12-11 09:00:00 0 6816 0.44 0.14 0.84 100 0.4 0.1
2018-12-11 10:00:00 0 6844 1.49 0.96 1.93 100 1.4 0.9
2018-12-11 11:00:00 0 7000 2.72 2.06 3.16 100 2.6 2
2018-12-11 12:00:00 0 7070 3.26 3.14 3.37 100 3.2 3.1
2018-12-11 13:00:00 0 7050 2.95 2.73 3.19 100 2.9 2.7
2018-12-11 14:00:00 0 6982 2.64 2.39 2.88 100 2.5 2.3
2018-12-11 15:00:00 0.2 6904 2.42 2.27 2.55 100 2.3 2.2